Time;durP1;ratioP1;P1;durP2;ratioP2;P2;SDS_P1;SDS_P2;PMS_P1;PMS_P2;Temp;Humidity;BMP_temperature;BMP_pressure;BME280_temperature;BME280_humidity;BME280_pressure;Samples;Min_cycle;Max_cycle;Signal;HPM_P1;HPM_P2
2022/06/15 00:01:14;;;;;;;8.13;5.25;;;15.10;99.90;;;;;;5094927;28;20028;-80
2022/06/15 00:03:40;;;;;;;5.25;4.75;;;15.10;99.90;;;;;;5094741;28;20027;-80
2022/06/15 00:06:18;;;;;;;6.55;4.72;;;15.10;99.90;;;;;;5094516;28;20035;-80
2022/06/15 00:08:45;;;;;;;6.78;4.53;;;15.00;99.90;;;;;;5094845;28;20407;-80
2022/06/15 00:11:15;;;;;;;5.43;4.93;;;15.00;99.90;;;;;;5094800;28;20024;-80
2022/06/15 00:13:41;;;;;;;9.43;5.28;;;15.00;99.90;;;;;;5094468;28;20027;-79
2022/06/15 00:16:07;;;;;;;12.70;5.45;;;15.00;99.90;;;;;;5094676;28;20024;-80
2022/06/15 00:18:34;;;;;;;5.43;4.90;;;15.00;99.90;;;;;;5094701;28;20056;-80
2022/06/15 00:21:00;;;;;;;5.35;4.85;;;14.90;99.90;;;;;;5094484;28;20032;-80
2022/06/15 00:23:30;;;;;;;6.90;5.15;;;14.90;99.90;;;;;;5094890;28;20024;-80
2022/06/15 00:25:57;;;;;;;5.82;5.07;;;14.90;99.90;;;;;;5077262;28;20032;-82
2022/06/15 00:28:23;;;;;;;5.22;4.63;;;14.80;99.90;;;;;;5093783;28;20515;-80
2022/06/15 00:30:52;;;;;;;7.13;5.20;;;14.80;99.90;;;;;;5094565;28;20056;-80
2022/06/15 00:33:19;;;;;;;5.72;4.93;;;14.80;99.90;;;;;;5094359;28;20475;-80
2022/06/15 00:35:56;;;;;;;5.22;4.72;;;14.80;99.90;;;;;;5093741;28;20038;-79
2022/06/15 00:38:26;;;;;;;10.07;5.85;;;14.80;99.90;;;;;;5094224;28;20353;-80
2022/06/15 00:40:52;;;;;;;5.18;4.55;;;14.80;99.90;;;;;;5093605;28;20420;-80
2022/06/15 00:43:28;;;;;;;5.75;4.68;;;14.70;99.90;;;;;;5094515;28;20024;-80
2022/06/15 00:45:54;;;;;;;7.75;5.38;;;14.70;99.90;;;;;;5094310;28;20036;-81
2022/06/15 00:48:20;;;;;;;9.43;6.55;;;14.60;99.90;;;;;;5093504;28;20065;-81
2022/06/15 00:50:45;;;;;;;5.60;4.97;;;14.60;99.90;;;;;;5095831;28;20032;-81
2022/06/15 00:53:11;;;;;;;7.00;5.78;;;14.50;99.90;;;;;;5094918;28;20028;-81
2022/06/15 00:55:37;;;;;;;6.15;5.55;;;14.60;99.90;;;;;;5093496;28;20059;-80
2022/06/15 00:58:08;;;;;;;8.93;6.10;;;14.60;99.90;;;;;;5093963;28;20048;-81
2022/06/15 01:00:34;;;;;;;7.05;5.35;;;14.60;99.90;;;;;;5094799;28;20039;-80
2022/06/15 01:03:00;;;;;;;9.77;5.75;;;14.50;99.90;;;;;;5095470;28;20027;-79
2022/06/15 01:05:49;;;;;;;6.88;5.38;;;14.50;99.90;;;;;;5096084;28;20419;-80
2022/06/15 01:08:24;;;;;;;6.38;5.72;;;14.50;99.90;;;;;;5097923;28;20031;-79
2022/06/15 01:11:08;;;;;;;6.38;5.78;;;14.40;99.90;;;;;;5095157;28;20028;-80
2022/06/15 01:14:18;;;;;;;9.45;5.45;;;14.40;99.90;;;;;;5094043;28;20035;-79
2022/06/15 01:17:11;;;;;;;6.97;5.63;;;14.40;99.90;;;;;;5092763;28;20032;-79
2022/06/15 01:20:05;;;;;;;6.45;5.85;;;14.40;99.90;;;;;;5097599;28;20286;-79
2022/06/15 01:23:06;;;;;;;6.57;5.68;;;14.40;99.90;;;;;;5094523;28;20021;-80
2022/06/15 01:25:44;;;;;;;;;;;14.30;99.90;;;;;;5094187;28;20089;-80
2022/06/15 01:28:47;;;;;;;12.15;5.25;;;14.30;99.90;;;;;;5093418;28;19954;-80
2022/06/15 01:31:34;;;;;;;10.15;5.68;;;14.20;99.90;;;;;;5092880;28;20077;-80
2022/06/15 01:34:35;;;;;;;10.05;5.75;;;14.20;99.90;;;;;;5093329;28;20468;-81
2022/06/15 01:37:28;;;;;;;6.53;5.93;;;14.20;99.90;;;;;;5088378;28;20040;-80
2022/06/15 01:40:22;;;;;;;5.95;5.45;;;14.20;99.90;;;;;;5093529;28;20121;-80
2022/06/15 01:43:03;;;;;;;7.85;5.90;;;14.10;99.90;;;;;;5093351;28;20403;-79
2022/06/15 01:45:32;;;;;;;6.78;5.72;;;14.10;99.90;;;;;;5092638;28;20106;-79
2022/06/15 01:48:02;;;;;;;10.00;6.20;;;14.10;99.90;;;;;;5093138;28;20449;-79
2022/06/15 01:50:32;;;;;;;8.98;5.72;;;14.00;99.90;;;;;;5093191;28;20590;-79
2022/06/15 01:53:01;;;;;;;6.35;5.80;;;14.10;99.90;;;;;;5092407;28;20460;-80
2022/06/15 01:56:01;;;;;;;8.10;5.75;;;14.00;99.90;;;;;;5093052;28;20109;-79
2022/06/15 01:58:30;;;;;;;6.75;5.57;;;13.90;99.90;;;;;;5023264;28;20044;-80
2022/06/15 02:01:09;;;;;;;10.52;5.82;;;13.90;99.90;;;;;;5093380;28;20031;-78
2022/06/15 02:03:42;;;;;;;7.07;6.38;;;13.80;99.90;;;;;;5094164;28;20028;-79
2022/06/15 02:06:24;;;;;;;8.32;6.03;;;13.80;99.90;;;;;;5099086;28;20024;-80
2022/06/15 02:08:56;;;;;;;6.65;5.97;;;13.80;99.90;;;;;;5099435;28;20035;-79
2022/06/15 02:11:29;;;;;;;9.00;5.68;;;13.80;99.90;;;;;;5093982;28;20027;-79
2022/06/15 02:14:02;;;;;;;9.25;6.05;;;13.70;99.90;;;;;;5092461;28;20024;-79
2022/06/15 02:16:35;;;;;;;8.63;6.35;;;13.70;99.90;;;;;;5093089;28;20038;-80
2022/06/15 02:19:06;;;;;;;11.57;5.90;;;13.70;99.90;;;;;;5092624;28;20036;-80
2022/06/15 02:21:33;;;;;;;;;;;13.70;99.90;;;;;;5093524;28;20422;-80
2022/06/15 02:24:00;;;;;;;6.00;5.40;;;13.60;99.90;;;;;;5092930;28;20007;-80
2022/06/15 02:26:30;;;;;;;7.28;5.63;;;13.60;99.90;;;;;;5092175;28;20047;-80
2022/06/15 02:29:01;;;;;;;7.13;5.70;;;13.60;99.90;;;;;;5092862;28;20035;-80
2022/06/15 02:31:27;;;;;;;6.80;5.60;;;13.60;99.90;;;;;;5092757;28;20047;-80
2022/06/15 02:33:54;;;;;;;6.25;5.38;;;13.60;99.90;;;;;;5092123;28;20066;-80
2022/06/15 02:36:21;;;;;;;7.63;5.07;;;13.50;99.90;;;;;;5092842;28;20028;-80
2022/06/15 02:38:49;;;;;;;5.75;5.22;;;13.50;99.90;;;;;;5092656;28;20040;-81
2022/06/15 02:41:18;;;;;;;5.70;5.20;;;13.50;99.90;;;;;;5092937;28;20020;-80
2022/06/15 02:43:46;;;;;;;7.78;5.40;;;13.40;99.90;;;;;;5096834;28;20032;-80
2022/06/15 02:46:14;;;;;;;9.85;6.32;;;13.40;99.90;;;;;;5096725;28;20024;-81
2022/06/15 02:48:43;;;;;;;5.60;5.10;;;13.40;99.90;;;;;;5096253;28;20024;-80
2022/06/15 02:51:41;;;;;;;11.57;5.85;;;13.30;99.90;;;;;;5099108;28;20379;-80
2022/06/15 02:54:17;;;;;;;6.60;6.00;;;13.40;99.90;;;;;;5098574;28;20088;-81
2022/06/15 02:56:43;;;;;;;7.15;5.40;;;13.30;99.90;;;;;;5097376;28;20059;-81
2022/06/15 02:59:09;;;;;;;6.88;6.18;;;13.30;99.90;;;;;;5111195;28;20051;-80
2022/06/15 03:01:35;;;;;;;6.65;5.75;;;13.30;99.90;;;;;;5096973;28;20024;-80
2022/06/15 03:04:01;;;;;;;6.32;5.68;;;13.30;99.90;;;;;;5097475;28;20077;-81
2022/06/15 03:06:27;;;;;;;7.63;5.47;;;13.30;99.90;;;;;;5097876;28;20020;-79
2022/06/15 03:08:55;;;;;;;7.35;5.75;;;13.30;99.90;;;;;;5095915;28;20031;-79
2022/06/15 03:11:24;;;;;;;7.18;5.15;;;13.30;99.90;;;;;;5097051;28;20028;-79
2022/06/15 03:13:50;;;;;;;8.57;6.20;;;13.30;99.90;;;;;;5098278;28;20403;-79
2022/06/15 03:16:16;;;;;;;11.88;5.90;;;13.30;99.90;;;;;;5095606;28;20036;-79
2022/06/15 03:18:42;;;;;;;7.90;5.72;;;13.30;99.90;;;;;;5095988;28;20050;-81
2022/06/15 03:21:07;;;;;;;11.32;5.82;;;13.20;99.90;;;;;;5096022;28;20073;-80
2022/06/15 03:23:33;;;;;;;6.45;5.53;;;13.20;99.90;;;;;;5095192;28;20051;-80
2022/06/15 03:26:01;;;;;;;8.68;5.07;;;13.20;99.90;;;;;;5096109;28;20028;-81
2022/06/15 03:28:26;;;;;;;6.57;5.40;;;13.10;99.90;;;;;;5095958;28;20024;-80
2022/06/15 03:30:52;;;;;;;9.55;5.95;;;13.10;99.90;;;;;;5094734;28;20383;-81
2022/06/15 03:33:18;;;;;;;7.13;5.30;;;13.20;99.90;;;;;;5096041;28;20420;-79
2022/06/15 03:35:44;;;;;;;7.80;5.65;;;13.10;99.90;;;;;;5096323;28;20024;-79
2022/06/15 03:38:10;;;;;;;7.53;5.50;;;13.10;99.90;;;;;;5095121;28;20020;-79
2022/06/15 03:40:42;;;;;;;8.25;4.93;;;13.10;99.90;;;;;;5096298;28;20059;-80
2022/06/15 03:43:11;;;;;;;5.78;5.10;;;13.20;99.90;;;;;;5097620;28;20031;-80
2022/06/15 03:45:37;;;;;;;10.82;5.90;;;13.10;99.90;;;;;;5096319;28;20038;-79
2022/06/15 03:48:04;;;;;;;7.70;5.43;;;13.10;99.90;;;;;;5096853;28;20020;-79
2022/06/15 03:50:31;;;;;;;7.00;5.00;;;13.10;99.90;;;;;;5095887;28;20110;-80
2022/06/15 03:52:58;;;;;;;7.20;5.32;;;13.10;99.90;;;;;;5106460;28;20070;-80
2022/06/15 03:55:24;;;;;;;6.47;4.95;;;13.10;99.90;;;;;;5098869;28;20472;-80
2022/06/15 03:57:50;;;;;;;6.38;5.30;;;13.10;99.90;;;;;;5095830;28;20035;-80
2022/06/15 04:00:18;;;;;;;5.88;4.90;;;13.10;99.90;;;;;;5095316;28;20039;-80
2022/06/15 04:02:45;;;;;;;5.20;4.60;;;13.10;99.90;;;;;;5095261;28;20036;-79
2022/06/15 04:05:33;;;;;;;9.70;5.47;;;13.10;99.90;;;;;;5094811;28;20031;-79
2022/06/15 04:10:43;;;;;;;11.77;4.88;;;13.20;99.90;;;;;;5095555;28;20035;-79
2022/06/15 04:13:08;;;;;;;5.22;4.65;;;13.30;99.90;;;;;;5094724;28;20024;-79
2022/06/15 04:15:34;;;;;;;5.22;4.57;;;13.20;99.90;;;;;;5095246;28;20081;-79
2022/06/15 04:17:59;;;;;;;12.05;4.80;;;13.20;99.90;;;;;;5095213;28;20048;-79
2022/06/15 04:20:33;;;;;;;5.05;4.53;;;13.30;99.90;;;;;;5094190;28;20040;-79
2022/06/15 04:23:04;;;;;;;7.93;4.63;;;13.30;99.90;;;;;;5094797;28;20016;-78
2022/06/15 04:25:31;;;;;;;10.30;4.50;;;13.40;99.90;;;;;;5094647;28;20390;-79
2022/06/15 04:27:58;;;;;;;5.50;4.65;;;13.40;99.90;;;;;;5094527;28;20120;-80
2022/06/15 04:30:25;;;;;;;6.80;5.30;;;13.40;99.90;;;;;;5094646;28;20527;-80
2022/06/15 04:32:51;;;;;;;8.85;4.55;;;13.40;99.90;;;;;;5094112;28;20039;-79
2022/06/15 04:35:17;;;;;;;7.63;4.50;;;13.40;99.90;;;;;;5094713;28;20444;-79
2022/06/15 04:37:43;;;;;;;5.88;4.70;;;13.50;99.90;;;;;;5094513;28;20103;-79
2022/06/15 04:40:09;;;;;;;7.82;4.68;;;13.50;99.90;;;;;;5093781;28;20411;-79
2022/06/15 04:42:39;;;;;;;8.52;4.80;;;13.50;99.90;;;;;;5096804;28;20031;-79
2022/06/15 04:45:06;;;;;;;6.40;4.57;;;13.50;99.90;;;;;;5094781;28;20495;-80
2022/06/15 04:47:31;;;;;;;6.45;4.97;;;13.60;99.90;;;;;;5093707;28;20069;-80
2022/06/15 04:49:57;;;;;;;8.40;4.40;;;13.60;99.90;;;;;;5094405;28;20403;-80
2022/06/15 04:52:22;;;;;;;7.47;4.88;;;13.70;99.90;;;;;;5097960;28;20085;-80
2022/06/15 04:54:48;;;;;;;7.72;4.93;;;13.70;99.90;;;;;;5093945;28;20035;-79
2022/06/15 04:57:13;;;;;;;6.22;3.92;;;13.80;99.90;;;;;;5094312;28;20020;-79
2022/06/15 04:59:40;;;;;;;8.18;4.85;;;13.80;99.90;;;;;;5094199;28;20048;-80
2022/06/15 05:02:05;;;;;;;6.50;4.78;;;13.80;99.90;;;;;;5100029;28;20458;-81
2022/06/15 05:04:33;;;;;;;7.07;5.10;;;13.80;99.90;;;;;;5098471;28;20028;-80
2022/06/15 05:06:59;;;;;;;9.52;5.00;;;13.90;99.90;;;;;;5094067;28;20027;-81
2022/06/15 05:09:24;;;;;;;10.45;5.18;;;13.90;99.90;;;;;;5093948;28;20087;-79
2022/06/15 05:11:50;;;;;;;9.73;4.90;;;14.00;99.90;;;;;;5099373;28;20031;-80
2022/06/15 05:14:16;;;;;;;7.30;5.00;;;14.00;99.90;;;;;;5104527;28;20024;-81
2022/06/15 05:16:44;;;;;;;7.63;4.50;;;14.00;99.90;;;;;;5104236;28;20024;-79
2022/06/15 05:19:09;;;;;;;7.95;4.85;;;14.10;99.90;;;;;;5106245;28;20053;-78
2022/06/15 05:21:40;;;;;;;10.27;5.32;;;14.10;99.90;;;;;;5095379;28;20115;-79
2022/06/15 05:24:06;;;;;;;4.95;4.20;;;14.20;99.90;;;;;;5093913;28;20542;-78
2022/06/15 05:26:32;;;;;;;5.10;4.03;;;14.20;99.90;;;;;;5094192;28;20028;-80
2022/06/15 05:28:58;;;;;;;12.40;4.70;;;14.30;99.90;;;;;;5093251;28;20024;-79
2022/06/15 05:31:23;;;;;;;10.57;4.25;;;14.30;99.90;;;;;;5076249;28;20071;-79
2022/06/15 05:33:55;;;;;;;7.65;4.57;;;14.40;99.90;;;;;;5093726;28;20024;-79
2022/06/15 05:36:30;;;;;;;5.72;4.80;;;14.50;99.90;;;;;;5092807;28;20039;-80
2022/06/15 05:38:56;;;;;;;5.15;3.92;;;14.60;99.90;;;;;;5093563;28;20032;-78
2022/06/15 05:41:22;;;;;;;6.47;5.03;;;14.80;99.90;;;;;;5093433;28;20035;-78
2022/06/15 05:43:55;;;;;;;6.00;5.07;;;14.80;99.90;;;;;;5092745;28;20527;-78
2022/06/15 05:46:27;;;;;;;5.30;4.15;;;14.90;99.90;;;;;;5093806;28;20534;-79
2022/06/15 05:48:54;;;;;;;5.85;4.20;;;15.00;99.90;;;;;;5093364;28;20024;-80
2022/06/15 05:51:20;;;;;;;4.97;3.60;;;15.10;99.90;;;;;;5092935;28;20016;-80
2022/06/15 05:53:45;;;;;;;6.00;4.45;;;15.20;99.90;;;;;;5093570;28;20039;-80
2022/06/15 05:56:11;;;;;;;8.25;4.45;;;15.30;99.90;;;;;;5093625;28;20020;-80
2022/06/15 05:58:36;;;;;;;5.20;4.53;;;15.40;99.90;;;;;;5092227;28;20059;-80
2022/06/15 06:01:17;;;;;;;9.95;5.63;;;15.50;99.90;;;;;;5093264;28;20487;-79
2022/06/15 06:03:42;;;;;;;;;;;15.60;99.90;;;;;;5093547;28;20021;-79
2022/06/15 06:06:10;;;;;;;10.57;4.75;;;15.60;99.90;;;;;;5092918;28;19904;-80
2022/06/15 06:08:35;;;;;;;6.82;4.18;;;15.60;99.90;;;;;;5093284;28;20095;-79
2022/06/15 06:11:01;;;;;;;5.57;4.50;;;15.70;99.90;;;;;;5092875;28;20514;-80
2022/06/15 06:13:27;;;;;;;9.50;5.40;;;15.80;99.90;;;;;;5092964;28;20051;-78
2022/06/15 06:15:55;;;;;;;8.80;4.60;;;15.90;99.90;;;;;;5096698;28;20028;-80
2022/06/15 06:18:24;;;;;;;7.65;4.40;;;15.90;99.90;;;;;;5099525;28;20026;-79
2022/06/15 06:20:50;;;;;;;7.88;5.25;;;16.00;99.90;;;;;;5097973;28;20043;-78
2022/06/15 06:23:16;;;;;;;12.93;5.13;;;16.00;99.90;;;;;;5097387;28;20028;-78
2022/06/15 06:25:43;;;;;;;7.43;4.22;;;16.00;99.90;;;;;;5096766;28;20035;-79
2022/06/15 06:28:17;;;;;;;8.10;4.38;;;16.10;99.90;;;;;;5098130;28;20048;-79
2022/06/15 06:30:48;;;;;;;9.77;5.22;;;16.20;99.90;;;;;;5099197;28;20055;-78
2022/06/15 06:33:14;;;;;;;8.52;5.25;;;16.30;99.90;;;;;;5096990;28;20039;-79
2022/06/15 06:35:40;;;;;;;5.22;3.88;;;16.30;99.90;;;;;;5100644;28;20028;-78
2022/06/15 06:38:05;;;;;;;9.32;4.13;;;16.40;99.90;;;;;;5097075;28;20400;-79
2022/06/15 06:40:32;;;;;;;8.85;4.75;;;16.50;99.90;;;;;;5096080;28;20052;-79
2022/06/15 06:42:57;;;;;;;7.43;3.78;;;16.50;99.90;;;;;;5096693;28;20066;-78
2022/06/15 06:45:23;;;;;;;6.70;4.63;;;16.60;99.90;;;;;;5099943;28;20430;-79
2022/06/15 06:47:48;;;;;;;5.47;3.40;;;16.60;99.90;;;;;;5096062;28;20023;-79
2022/06/15 06:50:14;;;;;;;8.65;4.40;;;16.70;99.90;;;;;;5096549;28;20107;-79
2022/06/15 06:52:41;;;;;;;4.13;3.72;;;16.80;99.90;;;;;;5096612;28;20024;-78
2022/06/15 06:55:10;;;;;;;6.60;4.32;;;16.90;99.90;;;;;;5095636;28;20024;-79
2022/06/15 06:57:36;;;;;;;5.20;3.58;;;17.00;99.90;;;;;;5096339;28;20035;-79
2022/06/15 07:00:02;;;;;;;5.35;3.50;;;17.00;99.90;;;;;;5095970;28;20123;-79
2022/06/15 07:02:28;;;;;;;10.88;4.22;;;17.10;99.90;;;;;;5096018;28;20039;-80
2022/06/15 07:04:53;;;;;;;8.25;4.50;;;17.20;99.90;;;;;;5096472;28;20032;-79
2022/06/15 07:07:19;;;;;;;11.23;4.60;;;17.20;99.90;;;;;;5107552;28;20020;-78
2022/06/15 07:09:44;;;;;;;5.00;4.13;;;17.30;99.90;;;;;;5103696;28;20032;-79
2022/06/15 07:12:10;;;;;;;11.13;4.60;;;17.40;99.90;;;;;;5096223;28;20017;-79
2022/06/15 07:14:36;;;;;;;10.35;4.47;;;17.50;99.90;;;;;;5095969;28;20039;-79
2022/06/15 07:17:01;;;;;;;9.23;4.20;;;17.60;99.90;;;;;;5102755;28;20040;-79
2022/06/15 07:19:28;;;;;;;8.63;4.20;;;17.60;99.90;;;;;;5106643;28;20028;-80
2022/06/15 07:21:54;;;;;;;5.60;4.10;;;17.60;99.90;;;;;;5102839;28;20028;-79
2022/06/15 07:24:19;;;;;;;7.60;3.45;;;17.70;99.90;;;;;;5109576;28;20030;-80
2022/06/15 07:26:47;;;;;;;5.35;2.95;;;17.70;99.90;;;;;;5096401;28;20031;-81
2022/06/15 07:29:16;;;;;;;6.45;4.03;;;17.80;99.90;;;;;;5095839;28;20035;-79
2022/06/15 07:31:46;;;;;;;5.63;4.50;;;17.80;99.90;;;;;;5096124;28;20047;-78
2022/06/15 07:34:12;;;;;;;9.57;4.40;;;18.00;99.90;;;;;;5096119;28;20027;-78
2022/06/15 07:36:40;;;;;;;9.07;4.70;;;18.00;99.90;;;;;;5095409;28;20111;-79
2022/06/15 07:39:07;;;;;;;7.82;4.32;;;18.10;99.90;;;;;;5095478;28;20036;-79
2022/06/15 07:41:33;;;;;;;9.30;5.32;;;18.20;99.90;;;;;;5096051;28;20032;-79
2022/06/15 07:43:59;;;;;;;6.95;4.47;;;18.30;99.90;;;;;;5095170;28;20050;-79
2022/06/15 07:46:25;;;;;;;5.40;3.63;;;18.40;99.90;;;;;;5095610;28;20479;-78
2022/06/15 07:51:43;;;;;;;7.45;3.33;;;18.50;99.90;;;;;;5094965;28;20096;-79
2022/06/15 07:54:12;;;;;;;12.88;4.60;;;18.50;99.90;;;;;;5095613;28;20095;-79
2022/06/15 07:56:39;;;;;;;6.82;2.72;;;18.50;99.90;;;;;;5095239;28;20031;-79
2022/06/15 07:59:05;;;;;;;4.00;2.65;;;18.60;99.90;;;;;;5095059;28;20072;-78
2022/06/15 08:01:31;;;;;;;7.00;2.85;;;18.60;99.90;;;;;;5095548;28;20030;-78
2022/06/15 08:03:56;;;;;;;4.32;2.53;;;18.70;99.90;;;;;;5094849;28;20103;-79
2022/06/15 08:06:23;;;;;;;12.52;2.83;;;18.70;99.90;;;;;;5095325;28;20032;-81
2022/06/15 08:08:49;;;;;;;9.57;2.75;;;18.90;99.90;;;;;;5095228;28;20024;-78
2022/06/15 08:11:15;;;;;;;3.92;2.28;;;19.00;99.90;;;;;;5094538;28;20387;-81
2022/06/15 08:13:41;;;;;;;6.90;3.33;;;19.00;99.90;;;;;;5094769;28;20017;-78
2022/06/15 08:16:07;;;;;;;11.25;3.42;;;18.60;99.80;;;;;;5095036;28;20089;-79
2022/06/15 08:18:40;;;;;;;6.18;2.83;;;18.70;99.00;;;;;;5094221;28;20054;-79
2022/06/15 08:21:10;;;;;;;5.47;2.90;;;19.20;98.90;;;;;;5095221;28;20038;-79
2022/06/15 08:23:39;;;;;;;3.97;2.13;;;19.30;99.50;;;;;;5095633;28;20020;-79
2022/06/15 08:26:11;;;;;;;12.50;2.88;;;19.30;99.60;;;;;;5096544;28;20297;-79
2022/06/15 08:28:42;;;;;;;4.63;2.60;;;19.40;98.90;;;;;;5101327;28;20055;-79
2022/06/15 08:31:08;;;;;;;6.90;2.58;;;19.50;97.90;;;;;;5095100;28;20485;-79
2022/06/15 08:33:34;;;;;;;4.75;2.20;;;19.50;97.70;;;;;;5094404;28;20135;-79
2022/06/15 08:35:59;;;;;;;4.93;2.25;;;19.60;97.50;;;;;;5097403;28;20016;-79
2022/06/15 08:38:27;;;;;;;6.28;2.25;;;19.60;97.40;;;;;;5093583;28;20070;-80
2022/06/15 08:40:59;;;;;;;5.82;2.65;;;19.70;97.20;;;;;;5093688;28;20544;-77
2022/06/15 08:43:57;;;;;;;6.10;2.63;;;19.80;96.20;;;;;;5094356;28;20035;-79
2022/06/15 08:46:55;;;;;;;4.00;2.63;;;19.80;96.50;;;;;;5093941;28;20024;-79
2022/06/15 08:49:52;;;;;;;4.18;2.28;;;19.80;96.70;;;;;;5094578;28;20028;-79
2022/06/15 08:52:32;;;;;;;5.88;2.10;;;19.90;96.40;;;;;;5095640;28;20112;-79
2022/06/15 08:55:19;;;;;;;4.60;2.58;;;20.00;96.30;;;;;;5096044;28;20460;-79
2022/06/15 08:57:52;;;;;;;3.63;2.25;;;20.10;95.00;;;;;;5094530;28;20056;-78
2022/06/15 09:00:37;;;;;;;5.70;2.30;;;20.20;95.00;;;;;;5093899;28;20427;-79
2022/06/15 09:03:22;;;;;;;6.55;2.38;;;20.20;95.20;;;;;;5094893;28;20016;-79
2022/06/15 09:06:22;;;;;;;4.63;2.15;;;20.20;95.50;;;;;;5095378;28;20488;-79
2022/06/15 09:09:23;;;;;;;7.22;2.67;;;20.20;96.00;;;;;;5093766;28;20028;-79
2022/06/15 09:15:35;;;;;;;5.50;2.40;;;20.30;94.30;;;;;;5088756;28;20002;-80
2022/06/15 09:18:07;;;;;;;8.63;2.28;;;20.40;94.40;;;;;;5061667;28;20032;-80
2022/06/15 09:20:41;;;;;;;3.95;2.28;;;20.40;94.50;;;;;;5093738;28;20035;-80
2022/06/15 09:23:22;;;;;;;4.15;2.03;;;20.40;94.00;;;;;;5103270;28;20035;-79
2022/06/15 09:25:53;;;;;;;5.55;2.97;;;20.40;94.30;;;;;;5101643;28;20028;-79
2022/06/15 09:28:32;;;;;;;7.25;2.67;;;20.50;94.50;;;;;;5105158;28;20020;-77
2022/06/15 09:31:03;;;;;;;8.75;2.70;;;20.60;93.80;;;;;;5098636;28;20028;-80
2022/06/15 09:33:36;;;;;;;5.30;3.03;;;20.60;94.00;;;;;;5094218;28;20036;-79
2022/06/15 09:36:12;;;;;;;5.25;2.22;;;20.70;94.60;;;;;;5092955;28;20024;-79
2022/06/15 09:38:38;;;;;;;3.30;2.20;;;20.80;94.00;;;;;;5093916;28;20020;-80
2022/06/15 09:41:23;;;;;;;7.18;2.97;;;20.80;93.10;;;;;;5093675;28;20392;-78
2022/06/15 09:44:15;;;;;;;6.75;2.80;;;20.80;93.00;;;;;;5093487;28;20390;-79
2022/06/15 09:47:18;;;;;;;5.07;2.40;;;20.90;93.40;;;;;;5094009;28;20024;-79
2022/06/15 09:49:52;;;;;;;4.82;2.22;;;20.90;93.80;;;;;;5092973;28;20046;-79
2022/06/15 09:52:41;;;;;;;8.27;2.08;;;21.00;93.90;;;;;;5093484;28;20024;-78
2022/06/15 09:55:37;;;;;;;5.72;2.58;;;21.00;93.80;;;;;;5093406;28;20038;-78
2022/06/15 09:58:07;;;;;;;3.92;2.10;;;21.20;92.70;;;;;;5092702;28;20032;-79
2022/06/15 10:00:37;;;;;;;4.40;2.13;;;21.20;93.20;;;;;;5093129;28;20074;-78
2022/06/15 10:03:16;;;;;;;8.25;2.20;;;21.40;93.10;;;;;;5093020;28;20055;-79
2022/06/15 10:05:45;;;;;;;4.88;2.47;;;21.40;92.90;;;;;;5093188;28;20020;-79
2022/06/15 10:08:14;;;;;;;3.97;2.25;;;21.40;92.80;;;;;;5092974;28;20024;-80
2022/06/15 10:10:55;;;;;;;8.82;2.88;;;21.50;92.30;;;;;;5092626;28;20031;-78
2022/06/15 10:13:21;;;;;;;5.00;2.70;;;21.60;91.80;;;;;;5093343;28;20031;-80
2022/06/15 10:16:05;;;;;;;4.10;2.30;;;21.50;92.10;;;;;;5093398;28;20028;-79
2022/06/15 10:18:44;;;;;;;6.00;2.42;;;21.50;92.30;;;;;;5094268;28;20016;-79
2022/06/15 10:21:22;;;;;;;5.00;3.00;;;21.60;92.00;;;;;;5093332;28;20032;-79
2022/06/15 10:24:19;;;;;;;5.85;2.40;;;21.60;91.80;;;;;;5092846;28;20024;-79
2022/06/15 10:26:51;;;;;;;6.38;2.42;;;21.60;92.10;;;;;;5093542;28;20020;-80
2022/06/15 10:29:18;;;;;;;12.20;4.30;;;21.80;92.70;;;;;;5093520;28;20057;-79
2022/06/15 10:32:11;;;;;;;5.03;2.58;;;21.90;92.00;;;;;;5092634;28;20032;-79
2022/06/15 10:34:46;;;;;;;4.60;3.05;;;22.10;92.10;;;;;;5093361;28;20039;-78
2022/06/15 10:37:19;;;;;;;3.15;2.00;;;22.20;92.00;;;;;;5092956;28;20103;-78
2022/06/15 10:39:49;;;;;;;4.65;2.33;;;22.30;91.70;;;;;;5092214;28;20032;-78
2022/06/15 10:42:23;;;;;;;6.07;2.17;;;22.30;91.70;;;;;;5092837;28;20024;-79
2022/06/15 10:44:53;;;;;;;6.82;2.60;;;22.40;91.00;;;;;;5092710;28;20101;-78
2022/06/15 10:47:22;;;;;;;6.10;2.70;;;22.40;91.60;;;;;;5092368;28;20569;-80
2022/06/15 10:50:16;;;;;;;4.15;2.50;;;22.40;91.10;;;;;;5093299;28;20104;-78
2022/06/15 10:52:50;;;;;;;4.65;2.67;;;22.40;91.20;;;;;;5091986;28;20028;-79
2022/06/15 11:04:16;;;;;;;6.65;2.75;;;22.60;90.80;;;;;;5096758;28;20069;-79
2022/06/15 11:06:47;;;;;;;7.72;2.45;;;22.70;89.20;;;;;;5095758;28;20032;-78
2022/06/15 11:09:33;;;;;;;6.07;2.67;;;22.60;88.60;;;;;;5096548;28;20073;-79
2022/06/15 11:12:04;;;;;;;6.22;2.50;;;22.60;88.30;;;;;;5096466;28;20505;-78
2022/06/15 11:14:51;;;;;;;8.20;2.63;;;22.60;89.30;;;;;;5095791;28;20024;-79
2022/06/15 11:20:48;;;;;;;9.75;3.40;;;22.70;88.00;;;;;;5104399;28;20085;-78
2022/06/15 11:23:29;;;;;;;4.18;2.10;;;22.80;87.00;;;;;;5099348;28;20388;-79
2022/06/15 11:26:51;;;;;;;6.65;3.50;;;22.80;88.00;;;;;;5103954;28;20095;-80
2022/06/15 11:28:52;;;;;;;6.03;2.63;;;22.80;88.60;;;;;;5113755;28;20035;-79
2022/06/15 11:31:18;;;;;;;4.13;1.80;;;22.90;89.10;;;;;;5110160;28;20028;-79
2022/06/15 11:34:09;;;;;;;4.13;1.95;;;23.00;88.70;;;;;;5107525;28;20032;-79
2022/06/15 11:36:48;;;;;;;4.35;2.15;;;23.10;89.00;;;;;;5100724;28;20031;-79
2022/06/15 11:39:22;;;;;;;4.40;2.83;;;23.10;89.40;;;;;;5097890;28;20066;-80
2022/06/15 11:41:53;;;;;;;3.88;2.20;;;23.20;87.50;;;;;;5097088;28;20022;-79
2022/06/15 11:44:32;;;;;;;7.45;2.50;;;23.10;88.00;;;;;;5096904;28;20480;-78
2022/06/15 11:47:02;;;;;;;4.70;2.33;;;23.20;89.20;;;;;;5095887;28;20032;-80
2022/06/15 11:49:50;;;;;;;4.50;2.33;;;23.20;89.20;;;;;;5095432;28;20016;-79
2022/06/15 11:52:24;;;;;;;5.63;2.03;;;23.40;88.50;;;;;;5095679;28;20541;-79
2022/06/15 11:55:18;;;;;;;5.22;2.60;;;23.30;87.40;;;;;;5095261;28;20058;-79
2022/06/15 11:58:17;;;;;;;5.28;2.20;;;23.30;87.70;;;;;;5094790;28;20484;-80
2022/06/15 12:01:08;;;;;;;4.60;1.70;;;23.40;88.10;;;;;;5095369;28;20052;-78
2022/06/15 12:03:48;;;;;;;4.47;2.20;;;23.60;88.70;;;;;;5095031;28;20499;-78
2022/06/15 12:06:25;;;;;;;;;;;23.80;87.80;;;;;;5095662;28;20099;-78
2022/06/15 12:09:08;;;;;;;4.85;1.75;;;23.90;86.30;;;;;;5094898;28;20348;-78
2022/06/15 12:15:16;;;;;;;4.20;2.33;;;24.10;86.20;;;;;;5095160;28;20031;-78
2022/06/15 12:17:55;;;;;;;4.57;2.67;;;24.20;86.30;;;;;;5094434;28;20016;-78
2022/06/15 12:21:05;;;;;;;3.22;1.92;;;24.30;84.90;;;;;;5095084;28;20458;-79
2022/06/15 12:23:42;;;;;;;2.88;1.85;;;24.30;82.80;;;;;;5074146;28;20032;-79
2022/06/15 12:26:43;;;;;;;6.18;2.50;;;24.20;84.40;;;;;;5094641;28;20044;-78
2022/06/15 12:29:30;;;;;;;4.30;1.80;;;24.40;83.80;;;;;;5094907;28;20506;-79
2022/06/15 12:35:17;;;;;;;22.65;3.25;;;24.60;83.10;;;;;;5094619;28;20029;-80
2022/06/15 12:37:53;;;;;;;5.65;2.10;;;24.70;81.50;;;;;;5094683;28;20091;-79
2022/06/15 12:40:33;;;;;;;3.00;1.90;;;24.60;81.50;;;;;;5094097;28;20035;-80
2022/06/15 12:43:33;;;;;;;4.57;1.98;;;24.70;82.80;;;;;;5094558;28;20056;-77
2022/06/15 12:46:16;;;;;;;4.22;2.60;;;24.80;82.20;;;;;;5093881;28;20480;-78
2022/06/15 12:49:11;;;;;;;4.28;1.90;;;24.70;81.80;;;;;;5094246;28;20025;-78
2022/06/15 12:51:56;;;;;;;2.55;1.90;;;24.70;82.90;;;;;;5091519;28;20032;-79
2022/06/15 12:54:44;;;;;;;3.95;2.10;;;24.80;82.10;;;;;;5093704;28;20118;-78
2022/06/15 12:57:22;;;;;;;4.63;2.28;;;24.90;80.10;;;;;;5094134;28;20032;-77
2022/06/15 13:00:11;;;;;;;3.00;2.03;;;25.00;79.00;;;;;;5093105;28;20051;-78
2022/06/15 13:03:02;;;;;;;15.40;2.63;;;25.20;79.80;;;;;;5093933;28;20028;-78
2022/06/15 13:05:32;;;;;;;4.95;2.30;;;25.20;79.60;;;;;;5093863;28;20020;-78
2022/06/15 13:08:16;;;;;;;7.45;2.50;;;25.30;80.70;;;;;;5093438;28;20028;-77
2022/06/15 13:10:53;;;;;;;6.20;2.88;;;25.40;80.60;;;;;;5093857;28;20028;-78
2022/06/15 13:13:32;;;;;;;4.35;2.25;;;25.50;79.30;;;;;;5093442;28;20028;-78
2022/06/15 13:16:08;;;;;;;5.13;2.20;;;25.60;79.20;;;;;;5093690;28;20024;-78
2022/06/15 13:18:40;;;;;;;4.93;2.42;;;25.60;79.70;;;;;;5093693;28;20035;-77
2022/06/15 13:21:06;;;;;;;5.25;1.80;;;25.60;79.30;;;;;;5093299;28;20032;-78
2022/06/15 13:23:39;;;;;;;9.07;2.65;;;25.80;79.60;;;;;;5094935;28;20024;-77
2022/06/15 13:26:18;;;;;;;5.47;2.42;;;25.80;79.40;;;;;;5102496;28;20035;-78
2022/06/15 13:29:04;;;;;;;3.25;2.00;;;25.90;79.30;;;;;;5093464;28;20112;-79
2022/06/15 13:31:46;;;;;;;5.18;1.92;;;25.90;78.80;;;;;;5093687;28;20028;-77
2022/06/15 13:34:36;;;;;;;4.93;2.22;;;26.00;79.40;;;;;;5094946;28;20473;-77
2022/06/15 13:37:20;;;;;;;8.07;3.22;;;26.10;79.60;;;;;;5081831;28;20036;-78
2022/06/15 13:40:01;;;;;;;5.22;2.90;;;26.30;78.80;;;;;;5095638;28;20500;-78
2022/06/15 13:42:38;;;;;;;3.15;2.00;;;26.30;78.60;;;;;;5095222;28;20028;-78
2022/06/15 13:45:22;;;;;;;7.25;2.20;;;26.40;78.30;;;;;;5093689;28;20099;-77
2022/06/15 13:48:12;;;;;;;5.93;2.45;;;26.40;78.70;;;;;;5093144;28;20387;-78